Zim Mumbai — P3BA7 — position and weather

sailwx.info

Track history (hours):
 
Tides and Currents Weather Stations Pressure Air Temp Water Temp Dewpoint Dewpoint Depression Visibility Wind Speed Wind Dir Waves Ship Positions

Zim Mumbai

Last reported at 2016-May-03 10:33 UTC. Time now 2016-May-04 09:50 UTC.
Position S 33°43' E 018°12'.

Length 195.7 m; beam 32.3 m; draft 11.5 m.

Type: Ship (hazmat cat B). MMSI: 212160000.

Date/timePositionNaut miles runAvg speedWind from/ knotsBaromVisibWave heightAir tempDewpointWater temp
2016-May-03 10:33S 33°43' E 018°12'1313.1
2016-May-03 09:34S 33°51' E 018°24'4 3.3
2016-May-03 08:27S 33°55' E 018°26'0 0.0
2016-May-03 07:33S 33°55' E 018°26'0 0.0
2016-May-03 06:32S 33°55' E 018°26'0 0.0
2016-May-03 05:31S 33°55' E 018°26'0 0.0
2016-May-03 04:31S 33°55' E 018°26'0 0.0
2016-May-03 03:33S 33°55' E 018°26'0 0.0
2016-May-03 02:32S 33°55' E 018°26'0 0.0
2016-May-03 01:31S 33°55' E 018°26'0 0.0
2016-May-03 00:33S 33°55' E 018°26'0 0.0
2016-May-02 23:29S 33°55' E 018°26'0 0.0
2016-May-02 22:32S 33°55' E 018°26'0 0.0
2016-May-02 21:32S 33°55' E 018°26'0 0.0
2016-May-02 20:31S 33°55' E 018°26'0 0.0
2016-May-02 19:31S 33°55' E 018°26'0 0.0
2016-May-02 18:32S 33°55' E 018°26'0 0.0
2016-May-02 17:32S 33°55' E 018°26'0 0.0
2016-May-02 16:33S 33°55' E 018°26'0 0.0
2016-May-02 15:32S 33°55' E 018°26'0 0.0
2016-May-02 14:31S 33°55' E 018°26'0 0.0
2016-May-02 13:31S 33°55' E 018°26'0 0.0
2016-May-02 12:33S 33°55' E 018°26'0 0.0
2016-May-02 11:31S 33°55' E 018°26'0 0.0
2016-May-02 10:33S 33°55' E 018°26'0 0.0
2016-May-02 09:31S 33°55' E 018°26'0 0.0
2016-May-02 08:28S 33°55' E 018°26'0 0.0
2016-May-02 07:31S 33°55' E 018°26'0 0.0
2016-May-02 06:32S 33°55' E 018°26'0 0.0
2016-May-02 05:16S 33°55' E 018°26'0 0.0
2016-May-02 04:18S 33°55' E 018°26'0 0.0
2016-May-02 03:18S 33°55' E 018°26'0 0.0
2016-May-02 02:33S 33°55' E 018°26'0 0.0
2016-May-02 01:31S 33°55' E 018°26'0 0.0
2016-May-02 00:31S 33°55' E 018°26'0 0.0
2016-May-01 23:31S 33°55' E 018°26'0 0.0
2016-May-01 22:33S 33°55' E 018°26'0 0.0
2016-May-01 21:33S 33°55' E 018°26'0 0.0
2016-May-01 20:33S 33°55' E 018°26'3 3.2
2016-May-01 19:33S 33°52' E 018°23'  
2016-Apr-28 00:33S 29°50' E 031°07'1 1.4
2016-Apr-27 23:33S 29°50' E 031°08'7 7.0
2016-Apr-27 22:33S 29°50' E 031°16'1 0.6
2016-Apr-27 21:33S 29°50' E 031°17'4 4.5
2016-Apr-27 20:33S 29°48' E 031°12'1 1.0
2016-Apr-27 19:33S 29°49' E 031°13'1 0.6
2016-Apr-27 18:33S 29°49' E 031°13'0 0.5
2016-Apr-27 17:33S 29°50' E 031°13'1 0.6
2016-Apr-27 16:33S 29°49' E 031°14'1 0.8
2016-Apr-27 15:33S 29°49' E 031°15'1 0.9
2016-Apr-27 14:33S 29°49' E 031°16'1 0.9
2016-Apr-27 13:33S 29°49' E 031°17'4 4.4
2016-Apr-27 12:33S 29°47' E 031°12'1 1.0
2016-Apr-27 11:33S 29°48' E 031°13'1 1.0
2016-Apr-27 10:33S 29°48' E 031°15'1 0.8
2016-Apr-27 09:33S 29°48' E 031°15'1 0.5
2016-Apr-27 08:33S 29°48' E 031°16'4 3.9
2016-Apr-27 07:33S 29°50' E 031°13'1110.9
2016-Apr-27 06:33S 30°01' E 031°09'  
Track history (hours):
 
Tides and Currents Weather Stations Pressure Air Temp Water Temp Dewpoint Dewpoint Depression Visibility Wind Speed Wind Dir Waves Ship Positions

Zim Mumbai

Last reported at 2016-May-03 10:33 UTC. Time now 2016-May-04 09:50 UTC.
Position S 33°43' E 018°12'.

Length 195.7 m; beam 32.3 m; draft 11.5 m.

Type: Ship (hazmat cat B). MMSI: 212160000.

Date/timePositionNaut miles runAvg speedWind from/ knotsBaromVisibWave heightAir tempDewpointWater temp
2016-May-03 10:33S 33°43' E 018°12'1313.1
2016-May-03 09:34S 33°51' E 018°24'4 3.3
2016-May-03 08:27S 33°55' E 018°26'0 0.0
2016-May-03 07:33S 33°55' E 018°26'0 0.0
2016-May-03 06:32S 33°55' E 018°26'0 0.0
2016-May-03 05:31S 33°55' E 018°26'0 0.0
2016-May-03 04:31S 33°55' E 018°26'0 0.0
2016-May-03 03:33S 33°55' E 018°26'0 0.0
2016-May-03 02:32S 33°55' E 018°26'0 0.0
2016-May-03 01:31S 33°55' E 018°26'0 0.0
2016-May-03 00:33S 33°55' E 018°26'0 0.0
2016-May-02 23:29S 33°55' E 018°26'0 0.0
2016-May-02 22:32S 33°55' E 018°26'0 0.0
2016-May-02 21:32S 33°55' E 018°26'0 0.0
2016-May-02 20:31S 33°55' E 018°26'0 0.0
2016-May-02 19:31S 33°55' E 018°26'0 0.0
2016-May-02 18:32S 33°55' E 018°26'0 0.0
2016-May-02 17:32S 33°55' E 018°26'0 0.0
2016-May-02 16:33S 33°55' E 018°26'0 0.0
2016-May-02 15:32S 33°55' E 018°26'0 0.0
2016-May-02 14:31S 33°55' E 018°26'0 0.0
2016-May-02 13:31S 33°55' E 018°26'0 0.0
2016-May-02 12:33S 33°55' E 018°26'0 0.0
2016-May-02 11:31S 33°55' E 018°26'0 0.0
2016-May-02 10:33S 33°55' E 018°26'0 0.0
2016-May-02 09:31S 33°55' E 018°26'0 0.0
2016-May-02 08:28S 33°55' E 018°26'0 0.0
2016-May-02 07:31S 33°55' E 018°26'0 0.0
2016-May-02 06:32S 33°55' E 018°26'0 0.0
2016-May-02 05:16S 33°55' E 018°26'0 0.0
2016-May-02 04:18S 33°55' E 018°26'0 0.0
2016-May-02 03:18S 33°55' E 018°26'0 0.0
2016-May-02 02:33S 33°55' E 018°26'0 0.0
2016-May-02 01:31S 33°55' E 018°26'0 0.0
2016-May-02 00:31S 33°55' E 018°26'0 0.0
2016-May-01 23:31S 33°55' E 018°26'0 0.0
2016-May-01 22:33S 33°55' E 018°26'0 0.0
2016-May-01 21:33S 33°55' E 018°26'0 0.0
2016-May-01 20:33S 33°55' E 018°26'3 3.2
2016-May-01 19:33S 33°52' E 018°23'  
2016-Apr-28 00:33S 29°50' E 031°07'1 1.4
2016-Apr-27 23:33S 29°50' E 031°08'7 7.0
2016-Apr-27 22:33S 29°50' E 031°16'1 0.6
2016-Apr-27 21:33S 29°50' E 031°17'4 4.5
2016-Apr-27 20:33S 29°48' E 031°12'1 1.0
2016-Apr-27 19:33S 29°49' E 031°13'1 0.6
2016-Apr-27 18:33S 29°49' E 031°13'0 0.5
2016-Apr-27 17:33S 29°50' E 031°13'1 0.6
2016-Apr-27 16:33S 29°49' E 031°14'1 0.8
2016-Apr-27 15:33S 29°49' E 031°15'1 0.9
2016-Apr-27 14:33S 29°49' E 031°16'1 0.9
2016-Apr-27 13:33S 29°49' E 031°17'4 4.4
2016-Apr-27 12:33S 29°47' E 031°12'1 1.0
2016-Apr-27 11:33S 29°48' E 031°13'1 1.0
2016-Apr-27 10:33S 29°48' E 031°15'1 0.8
2016-Apr-27 09:33S 29°48' E 031°15'1 0.5
2016-Apr-27 08:33S 29°48' E 031°16'4 3.9
2016-Apr-27 07:33S 29°50' E 031°13'1110.9
2016-Apr-27 06:33S 30°01' E 031°09'  

Dump ship's entire track history